sensor_id;sensor_type;location;lat;lon;timestamp;P1;durP1;ratioP1;P2;durP2;ratioP2
3997;SDS011;61314;53.444;9.902;2023-07-16T00:02:01;3.93;;;1.77;;
3997;SDS011;61314;53.444;9.902;2023-07-16T00:04:29;2.93;;;2.17;;
3997;SDS011;61314;53.444;9.902;2023-07-16T00:06:57;2.03;;;1.83;;
3997;SDS011;61314;53.444;9.902;2023-07-16T00:09:24;3.53;;;1.77;;
3997;SDS011;61314;53.444;9.902;2023-07-16T00:11:51;3.73;;;1.53;;
3997;SDS011;61314;53.444;9.902;2023-07-16T00:14:18;2.13;;;1.93;;
3997;SDS011;61314;53.444;9.902;2023-07-16T00:16:45;3.00;;;2.53;;
3997;SDS011;61314;53.444;9.902;2023-07-16T00:19:14;2.40;;;1.40;;
3997;SDS011;61314;53.444;9.902;2023-07-16T00:21:41;5.93;;;2.13;;
3997;SDS011;61314;53.444;9.902;2023-07-16T00:24:08;3.17;;;1.97;;
3997;SDS011;61314;53.444;9.902;2023-07-16T00:26:35;3.47;;;2.30;;
3997;SDS011;61314;53.444;9.902;2023-07-16T00:29:02;2.30;;;2.10;;
3997;SDS011;61314;53.444;9.902;2023-07-16T00:31:29;3.43;;;1.57;;
3997;SDS011;61314;53.444;9.902;2023-07-16T00:33:57;2.50;;;1.87;;
3997;SDS011;61314;53.444;9.902;2023-07-16T00:36:24;2.23;;;1.80;;
3997;SDS011;61314;53.444;9.902;2023-07-16T00:38:51;4.03;;;1.43;;
3997;SDS011;61314;53.444;9.902;2023-07-16T00:41:18;1.87;;;1.60;;
3997;SDS011;61314;53.444;9.902;2023-07-16T00:43:45;3.80;;;1.83;;
3997;SDS011;61314;53.444;9.902;2023-07-16T00:46:12;2.13;;;1.60;;
3997;SDS011;61314;53.444;9.902;2023-07-16T00:48:40;2.00;;;1.80;;
3997;SDS011;61314;53.444;9.902;2023-07-16T00:51:07;2.20;;;1.80;;
3997;SDS011;61314;53.444;9.902;2023-07-16T00:53:34;5.40;;;1.80;;
3997;SDS011;61314;53.444;9.902;2023-07-16T00:56:01;6.57;;;2.10;;
3997;SDS011;61314;53.444;9.902;2023-07-16T00:58:29;1.83;;;1.73;;
3997;SDS011;61314;53.444;9.902;2023-07-16T01:00:56;1.83;;;1.70;;
3997;SDS011;61314;53.444;9.902;2023-07-16T01:03:23;2.70;;;1.80;;
3997;SDS011;61314;53.444;9.902;2023-07-16T01:08:41;4.93;;;2.10;;
3997;SDS011;61314;53.444;9.902;2023-07-16T01:11:08;5.10;;;1.93;;
3997;SDS011;61314;53.444;9.902;2023-07-16T01:13:35;1.90;;;1.60;;
3997;SDS011;61314;53.444;9.902;2023-07-16T01:16:03;3.23;;;2.23;;
3997;SDS011;61314;53.444;9.902;2023-07-16T01:18:30;2.60;;;1.73;;
3997;SDS011;61314;53.444;9.902;2023-07-16T01:20:57;2.70;;;1.80;;
3997;SDS011;61314;53.444;9.902;2023-07-16T01:29:21;2.23;;;1.90;;
3997;SDS011;61314;53.444;9.902;2023-07-16T01:31:55;4.10;;;1.70;;
3997;SDS011;61314;53.444;9.902;2023-07-16T01:34:23;4.33;;;2.00;;
3997;SDS011;61314;53.444;9.902;2023-07-16T01:36:51;3.20;;;2.30;;
3997;SDS011;61314;53.444;9.902;2023-07-16T01:39:18;3.13;;;1.97;;
3997;SDS011;61314;53.444;9.902;2023-07-16T01:41:45;2.03;;;1.80;;
3997;SDS011;61314;53.444;9.902;2023-07-16T01:44:12;3.30;;;1.93;;
3997;SDS011;61314;53.444;9.902;2023-07-16T01:46:39;2.13;;;1.93;;
3997;SDS011;61314;53.444;9.902;2023-07-16T01:49:07;4.43;;;2.23;;
3997;SDS011;61314;53.444;9.902;2023-07-16T01:51:34;2.80;;;2.33;;
3997;SDS011;61314;53.444;9.902;2023-07-16T01:54:01;3.40;;;2.00;;
3997;SDS011;61314;53.444;9.902;2023-07-16T01:56:28;2.53;;;1.83;;
3997;SDS011;61314;53.444;9.902;2023-07-16T01:58:55;2.20;;;1.67;;
3997;SDS011;61314;53.444;9.902;2023-07-16T02:01:22;5.03;;;1.90;;
3997;SDS011;61314;53.444;9.902;2023-07-16T02:03:49;2.37;;;2.17;;
3997;SDS011;61314;53.444;9.902;2023-07-16T02:06:16;2.30;;;2.10;;
3997;SDS011;61314;53.444;9.902;2023-07-16T02:08:44;4.90;;;2.00;;
3997;SDS011;61314;53.444;9.902;2023-07-16T02:11:11;2.80;;;1.90;;
3997;SDS011;61314;53.444;9.902;2023-07-16T02:13:38;2.63;;;2.10;;
3997;SDS011;61314;53.444;9.902;2023-07-16T02:16:05;5.73;;;2.20;;
3997;SDS011;61314;53.444;9.902;2023-07-16T02:18:32;4.30;;;2.43;;
3997;SDS011;61314;53.444;9.902;2023-07-16T02:20:59;3.23;;;2.07;;
3997;SDS011;61314;53.444;9.902;2023-07-16T02:23:28;5.40;;;2.00;;
3997;SDS011;61314;53.444;9.902;2023-07-16T02:25:55;3.73;;;1.70;;
3997;SDS011;61314;53.444;9.902;2023-07-16T02:28:22;3.47;;;2.20;;
3997;SDS011;61314;53.444;9.902;2023-07-16T02:30:49;4.20;;;2.63;;
3997;SDS011;61314;53.444;9.902;2023-07-16T02:33:17;5.90;;;2.50;;
3997;SDS011;61314;53.444;9.902;2023-07-16T02:35:47;4.90;;;1.97;;
3997;SDS011;61314;53.444;9.902;2023-07-16T02:38:15;3.67;;;2.10;;
3997;SDS011;61314;53.444;9.902;2023-07-16T02:40:44;2.53;;;1.90;;
3997;SDS011;61314;53.444;9.902;2023-07-16T02:43:11;8.40;;;2.27;;
3997;SDS011;61314;53.444;9.902;2023-07-16T02:45:39;2.23;;;2.00;;
3997;SDS011;61314;53.444;9.902;2023-07-16T02:48:06;6.13;;;2.17;;
3997;SDS011;61314;53.444;9.902;2023-07-16T02:50:37;2.83;;;1.97;;
3997;SDS011;61314;53.444;9.902;2023-07-16T02:53:04;2.53;;;2.13;;
3997;SDS011;61314;53.444;9.902;2023-07-16T02:55:32;4.90;;;2.47;;
3997;SDS011;61314;53.444;9.902;2023-07-16T02:58:01;3.00;;;2.10;;
3997;SDS011;61314;53.444;9.902;2023-07-16T03:00:31;3.13;;;1.97;;
3997;SDS011;61314;53.444;9.902;2023-07-16T03:02:59;2.17;;;2.07;;
3997;SDS011;61314;53.444;9.902;2023-07-16T03:05:27;4.50;;;2.43;;
3997;SDS011;61314;53.444;9.902;2023-07-16T03:07:55;5.70;;;2.00;;
3997;SDS011;61314;53.444;9.902;2023-07-16T03:10:22;5.50;;;2.20;;
3997;SDS011;61314;53.444;9.902;2023-07-16T03:12:49;3.93;;;2.30;;
3997;SDS011;61314;53.444;9.902;2023-07-16T03:15:16;2.83;;;2.07;;
3997;SDS011;61314;53.444;9.902;2023-07-16T03:17:43;1.93;;;1.83;;
3997;SDS011;61314;53.444;9.902;2023-07-16T03:20:11;4.70;;;2.20;;
3997;SDS011;61314;53.444;9.902;2023-07-16T03:22:39;5.17;;;2.30;;
3997;SDS011;61314;53.444;9.902;2023-07-16T03:25:06;3.00;;;2.20;;
3997;SDS011;61314;53.444;9.902;2023-07-16T03:27:33;9.30;;;2.43;;
3997;SDS011;61314;53.444;9.902;2023-07-16T03:30:01;5.03;;;1.90;;
3997;SDS011;61314;53.444;9.902;2023-07-16T03:32:30;3.43;;;2.20;;
3997;SDS011;61314;53.444;9.902;2023-07-16T03:35:17;3.40;;;2.00;;
3997;SDS011;61314;53.444;9.902;2023-07-16T03:37:44;6.53;;;2.10;;
3997;SDS011;61314;53.444;9.902;2023-07-16T03:40:15;4.43;;;2.50;;
3997;SDS011;61314;53.444;9.902;2023-07-16T03:42:42;9.77;;;2.17;;
3997;SDS011;61314;53.444;9.902;2023-07-16T03:45:10;4.53;;;2.60;;
3997;SDS011;61314;53.444;9.902;2023-07-16T03:47:37;2.60;;;2.33;;
3997;SDS011;61314;53.444;9.902;2023-07-16T03:50:05;5.20;;;2.27;;
3997;SDS011;61314;53.444;9.902;2023-07-16T03:52:32;1.80;;;1.70;;
3997;SDS011;61314;53.444;9.902;2023-07-16T03:54:59;3.33;;;2.20;;
3997;SDS011;61314;53.444;9.902;2023-07-16T03:57:29;6.07;;;2.70;;
3997;SDS011;61314;53.444;9.902;2023-07-16T03:59:56;5.20;;;2.20;;
3997;SDS011;61314;53.444;9.902;2023-07-16T04:02:24;4.47;;;2.43;;
3997;SDS011;61314;53.444;9.902;2023-07-16T04:04:51;3.10;;;2.13;;
3997;SDS011;61314;53.444;9.902;2023-07-16T04:07:18;5.30;;;2.60;;
3997;SDS011;61314;53.444;9.902;2023-07-16T04:09:45;2.50;;;2.30;;
3997;SDS011;61314;53.444;9.902;2023-07-16T04:12:12;4.03;;;2.47;;
3997;SDS011;61314;53.444;9.902;2023-07-16T04:14:39;6.70;;;2.73;;
3997;SDS011;61314;53.444;9.902;2023-07-16T04:17:06;5.90;;;2.37;;
3997;SDS011;61314;53.444;9.902;2023-07-16T04:19:33;2.70;;;2.50;;
3997;SDS011;61314;53.444;9.902;2023-07-16T04:22:01;3.90;;;2.50;;
3997;SDS011;61314;53.444;9.902;2023-07-16T04:24:28;10.97;;;3.10;;
3997;SDS011;61314;53.444;9.902;2023-07-16T04:26:55;5.30;;;2.27;;
3997;SDS011;61314;53.444;9.902;2023-07-16T04:29:22;3.43;;;1.90;;
3997;SDS011;61314;53.444;9.902;2023-07-16T04:31:49;5.43;;;2.50;;
3997;SDS011;61314;53.444;9.902;2023-07-16T04:34:16;4.50;;;2.60;;
3997;SDS011;61314;53.444;9.902;2023-07-16T04:36:43;3.70;;;2.40;;
3997;SDS011;61314;53.444;9.902;2023-07-16T04:39:11;4.93;;;2.57;;
3997;SDS011;61314;53.444;9.902;2023-07-16T04:41:38;4.10;;;2.30;;
3997;SDS011;61314;53.444;9.902;2023-07-16T04:44:05;4.13;;;2.20;;
3997;SDS011;61314;53.444;9.902;2023-07-16T04:46:32;3.03;;;2.73;;
3997;SDS011;61314;53.444;9.902;2023-07-16T04:49:00;5.77;;;3.03;;
3997;SDS011;61314;53.444;9.902;2023-07-16T04:51:28;6.43;;;3.80;;
3997;SDS011;61314;53.444;9.902;2023-07-16T04:53:55;3.00;;;2.43;;
3997;SDS011;61314;53.444;9.902;2023-07-16T04:56:22;3.33;;;2.63;;
3997;SDS011;61314;53.444;9.902;2023-07-16T04:58:49;3.93;;;2.30;;
3997;SDS011;61314;53.444;9.902;2023-07-16T05:01:16;2.70;;;2.50;;
3997;SDS011;61314;53.444;9.902;2023-07-16T05:03:43;3.80;;;2.10;;
3997;SDS011;61314;53.444;9.902;2023-07-16T05:06:10;2.90;;;2.67;;
3997;SDS011;61314;53.444;9.902;2023-07-16T05:08:37;5.10;;;2.50;;
3997;SDS011;61314;53.444;9.902;2023-07-16T05:11:04;2.97;;;2.70;;
3997;SDS011;61314;53.444;9.902;2023-07-16T05:13:31;2.37;;;2.00;;
3997;SDS011;61314;53.444;9.902;2023-07-16T05:15:58;3.93;;;2.37;;
3997;SDS011;61314;53.444;9.902;2023-07-16T05:18:26;3.33;;;2.37;;
3997;SDS011;61314;53.444;9.902;2023-07-16T05:20:53;3.30;;;2.20;;
3997;SDS011;61314;53.444;9.902;2023-07-16T05:23:20;3.03;;;2.23;;
3997;SDS011;61314;53.444;9.902;2023-07-16T05:25:48;4.83;;;2.07;;
3997;SDS011;61314;53.444;9.902;2023-07-16T05:28:18;4.03;;;2.17;;
3997;SDS011;61314;53.444;9.902;2023-07-16T05:30:46;3.20;;;2.50;;
3997;SDS011;61314;53.444;9.902;2023-07-16T05:33:13;5.03;;;2.70;;
3997;SDS011;61314;53.444;9.902;2023-07-16T05:35:40;3.37;;;2.40;;
3997;SDS011;61314;53.444;9.902;2023-07-16T05:38:07;3.03;;;2.30;;
3997;SDS011;61314;53.444;9.902;2023-07-16T05:40:34;2.13;;;1.93;;
3997;SDS011;61314;53.444;9.902;2023-07-16T05:43:01;4.83;;;2.57;;
3997;SDS011;61314;53.444;9.902;2023-07-16T05:45:29;3.37;;;2.53;;
3997;SDS011;61314;53.444;9.902;2023-07-16T05:47:56;2.90;;;1.80;;
3997;SDS011;61314;53.444;9.902;2023-07-16T05:50:23;3.77;;;2.30;;
3997;SDS011;61314;53.444;9.902;2023-07-16T05:52:50;7.10;;;2.40;;
3997;SDS011;61314;53.444;9.902;2023-07-16T05:55:17;6.00;;;2.90;;
3997;SDS011;61314;53.444;9.902;2023-07-16T05:57:44;2.50;;;2.30;;
3997;SDS011;61314;53.444;9.902;2023-07-16T06:00:12;7.67;;;2.40;;
3997;SDS011;61314;53.444;9.902;2023-07-16T06:02:39;5.30;;;2.00;;
3997;SDS011;61314;53.444;9.902;2023-07-16T06:05:07;6.83;;;2.50;;
3997;SDS011;61314;53.444;9.902;2023-07-16T06:07:34;3.70;;;2.57;;
3997;SDS011;61314;53.444;9.902;2023-07-16T06:10:01;7.00;;;2.30;;
3997;SDS011;61314;53.444;9.902;2023-07-16T06:12:28;8.87;;;3.37;;
3997;SDS011;61314;53.444;9.902;2023-07-16T06:14:55;2.53;;;2.10;;
3997;SDS011;61314;53.444;9.902;2023-07-16T06:17:22;4.93;;;2.13;;
3997;SDS011;61314;53.444;9.902;2023-07-16T06:19:50;3.97;;;2.27;;
3997;SDS011;61314;53.444;9.902;2023-07-16T06:22:17;4.13;;;2.20;;
3997;SDS011;61314;53.444;9.902;2023-07-16T06:24:44;5.90;;;2.27;;
3997;SDS011;61314;53.444;9.902;2023-07-16T06:27:12;4.30;;;2.27;;
3997;SDS011;61314;53.444;9.902;2023-07-16T06:29:39;2.70;;;2.50;;
3997;SDS011;61314;53.444;9.902;2023-07-16T06:32:06;11.43;;;3.10;;
3997;SDS011;61314;53.444;9.902;2023-07-16T06:34:33;3.53;;;2.23;;
3997;SDS011;61314;53.444;9.902;2023-07-16T06:37:00;4.27;;;2.30;;
3997;SDS011;61314;53.444;9.902;2023-07-16T06:39:27;7.27;;;3.20;;
3997;SDS011;61314;53.444;9.902;2023-07-16T06:41:54;3.07;;;2.23;;
3997;SDS011;61314;53.444;9.902;2023-07-16T06:44:22;3.70;;;2.67;;
3997;SDS011;61314;53.444;9.902;2023-07-16T06:46:49;9.97;;;2.43;;
3997;SDS011;61314;53.444;9.902;2023-07-16T06:49:16;4.07;;;2.40;;
3997;SDS011;61314;53.444;9.902;2023-07-16T06:51:43;5.03;;;2.60;;
3997;SDS011;61314;53.444;9.902;2023-07-16T06:54:11;3.57;;;3.20;;
3997;SDS011;61314;53.444;9.902;2023-07-16T06:56:38;5.53;;;3.80;;
3997;SDS011;61314;53.444;9.902;2023-07-16T06:59:05;6.67;;;3.43;;
3997;SDS011;61314;53.444;9.902;2023-07-16T07:01:32;5.83;;;3.07;;
3997;SDS011;61314;53.444;9.902;2023-07-16T07:03:59;11.33;;;3.50;;
3997;SDS011;61314;53.444;9.902;2023-07-16T07:06:27;5.10;;;3.40;;
3997;SDS011;61314;53.444;9.902;2023-07-16T07:08:54;9.13;;;3.20;;
3997;SDS011;61314;53.444;9.902;2023-07-16T07:11:21;3.97;;;3.33;;
3997;SDS011;61314;53.444;9.902;2023-07-16T07:13:48;5.70;;;2.87;;
3997;SDS011;61314;53.444;9.902;2023-07-16T07:16:16;5.93;;;2.83;;
3997;SDS011;61314;53.444;9.902;2023-07-16T07:18:44;5.77;;;3.67;;
3997;SDS011;61314;53.444;9.902;2023-07-16T07:21:11;5.57;;;2.73;;
3997;SDS011;61314;53.444;9.902;2023-07-16T07:23:38;3.83;;;3.30;;
3997;SDS011;61314;53.444;9.902;2023-07-16T07:26:06;7.13;;;3.30;;
3997;SDS011;61314;53.444;9.902;2023-07-16T07:28:33;5.80;;;2.80;;
3997;SDS011;61314;53.444;9.902;2023-07-16T07:31:00;6.70;;;2.63;;
3997;SDS011;61314;53.444;9.902;2023-07-16T07:33:28;7.10;;;3.30;;
3997;SDS011;61314;53.444;9.902;2023-07-16T07:35:55;6.80;;;3.00;;
3997;SDS011;61314;53.444;9.902;2023-07-16T07:38:23;10.23;;;2.97;;
3997;SDS011;61314;53.444;9.902;2023-07-16T07:40:50;6.70;;;2.97;;
3997;SDS011;61314;53.444;9.902;2023-07-16T07:43:17;7.40;;;2.83;;
3997;SDS011;61314;53.444;9.902;2023-07-16T07:45:44;8.20;;;3.67;;
3997;SDS011;61314;53.444;9.902;2023-07-16T07:48:11;9.17;;;3.67;;
3997;SDS011;61314;53.444;9.902;2023-07-16T07:50:38;9.03;;;2.70;;
3997;SDS011;61314;53.444;9.902;2023-07-16T07:53:05;6.00;;;2.97;;
3997;SDS011;61314;53.444;9.902;2023-07-16T07:55:33;4.47;;;3.03;;
3997;SDS011;61314;53.444;9.902;2023-07-16T07:58:01;12.60;;;2.50;;
3997;SDS011;61314;53.444;9.902;2023-07-16T08:00:28;8.50;;;3.07;;
3997;SDS011;61314;53.444;9.902;2023-07-16T08:02:55;10.73;;;3.07;;
3997;SDS011;61314;53.444;9.902;2023-07-16T08:05:22;6.10;;;2.57;;
3997;SDS011;61314;53.444;9.902;2023-07-16T08:07:49;5.57;;;2.63;;
3997;SDS011;61314;53.444;9.902;2023-07-16T08:10:18;5.17;;;2.57;;
3997;SDS011;61314;53.444;9.902;2023-07-16T08:12:45;6.47;;;3.17;;
3997;SDS011;61314;53.444;9.902;2023-07-16T08:15:12;6.17;;;2.63;;
3997;SDS011;61314;53.444;9.902;2023-07-16T08:17:42;9.50;;;2.93;;
3997;SDS011;61314;53.444;9.902;2023-07-16T08:20:09;5.40;;;3.03;;
3997;SDS011;61314;53.444;9.902;2023-07-16T08:22:37;7.77;;;2.43;;
3997;SDS011;61314;53.444;9.902;2023-07-16T08:25:05;7.47;;;2.70;;
3997;SDS011;61314;53.444;9.902;2023-07-16T08:27:32;5.93;;;3.40;;
3997;SDS011;61314;53.444;9.902;2023-07-16T08:29:59;3.90;;;2.67;;
3997;SDS011;61314;53.444;9.902;2023-07-16T08:32:26;3.50;;;2.27;;
3997;SDS011;61314;53.444;9.902;2023-07-16T08:34:53;6.30;;;3.13;;
3997;SDS011;61314;53.444;9.902;2023-07-16T08:37:20;4.20;;;2.43;;
3997;SDS011;61314;53.444;9.902;2023-07-16T08:39:50;6.40;;;2.63;;
3997;SDS011;61314;53.444;9.902;2023-07-16T08:42:17;7.20;;;2.87;;
3997;SDS011;61314;53.444;9.902;2023-07-16T08:44:45;5.27;;;3.17;;
3997;SDS011;61314;53.444;9.902;2023-07-16T08:47:13;4.57;;;3.33;;
3997;SDS011;61314;53.444;9.902;2023-07-16T08:49:40;5.93;;;3.67;;
3997;SDS011;61314;53.444;9.902;2023-07-16T08:52:07;4.50;;;3.43;;
3997;SDS011;61314;53.444;9.902;2023-07-16T08:54:34;4.27;;;3.87;;
3997;SDS011;61314;53.444;9.902;2023-07-16T08:57:01;8.57;;;3.80;;
3997;SDS011;61314;53.444;9.902;2023-07-16T08:59:28;4.73;;;4.20;;
3997;SDS011;61314;53.444;9.902;2023-07-16T09:01:56;5.30;;;4.77;;
3997;SDS011;61314;53.444;9.902;2023-07-16T09:04:24;6.17;;;3.77;;
3997;SDS011;61314;53.444;9.902;2023-07-16T09:06:51;4.73;;;4.20;;
3997;SDS011;61314;53.444;9.902;2023-07-16T09:09:19;5.73;;;4.03;;
3997;SDS011;61314;53.444;9.902;2023-07-16T09:11:47;4.37;;;3.97;;
3997;SDS011;61314;53.444;9.902;2023-07-16T09:14:17;5.40;;;3.80;;
3997;SDS011;61314;53.444;9.902;2023-07-16T09:16:51;5.47;;;4.60;;
3997;SDS011;61314;53.444;9.902;2023-07-16T09:19:18;5.17;;;3.93;;
3997;SDS011;61314;53.444;9.902;2023-07-16T09:21:46;5.60;;;4.30;;
3997;SDS011;61314;53.444;9.902;2023-07-16T09:24:14;8.27;;;4.60;;
3997;SDS011;61314;53.444;9.902;2023-07-16T09:26:48;6.53;;;3.73;;
3997;SDS011;61314;53.444;9.902;2023-07-16T09:29:16;4.13;;;3.50;;
3997;SDS011;61314;53.444;9.902;2023-07-16T09:31:56;7.27;;;4.40;;
3997;SDS011;61314;53.444;9.902;2023-07-16T09:34:26;8.03;;;4.63;;
3997;SDS011;61314;53.444;9.902;2023-07-16T09:36:53;10.37;;;4.20;;
3997;SDS011;61314;53.444;9.902;2023-07-16T09:39:20;10.00;;;3.90;;
3997;SDS011;61314;53.444;9.902;2023-07-16T09:41:49;12.80;;;4.33;;
3997;SDS011;61314;53.444;9.902;2023-07-16T09:44:17;5.40;;;4.37;;
3997;SDS011;61314;53.444;9.902;2023-07-16T09:46:44;12.47;;;4.53;;
3997;SDS011;61314;53.444;9.902;2023-07-16T09:49:14;6.50;;;4.30;;
3997;SDS011;61314;53.444;9.902;2023-07-16T09:51:41;7.50;;;3.83;;
3997;SDS011;61314;53.444;9.902;2023-07-16T09:54:10;4.47;;;4.00;;
3997;SDS011;61314;53.444;9.902;2023-07-16T09:56:43;7.00;;;4.43;;
3997;SDS011;61314;53.444;9.902;2023-07-16T09:59:13;7.00;;;3.70;;
3997;SDS011;61314;53.444;9.902;2023-07-16T10:01:40;5.40;;;4.00;;
3997;SDS011;61314;53.444;9.902;2023-07-16T10:09:41;8.17;;;4.70;;
3997;SDS011;61314;53.444;9.902;2023-07-16T10:12:12;9.60;;;4.33;;
3997;SDS011;61314;53.444;9.902;2023-07-16T10:17:14;5.97;;;3.53;;
3997;SDS011;61314;53.444;9.902;2023-07-16T10:19:57;6.50;;;4.33;;
3997;SDS011;61314;53.444;9.902;2023-07-16T10:22:31;7.50;;;4.73;;
3997;SDS011;61314;53.444;9.902;2023-07-16T10:24:59;7.63;;;4.30;;
3997;SDS011;61314;53.444;9.902;2023-07-16T10:27:27;9.43;;;3.80;;
3997;SDS011;61314;53.444;9.902;2023-07-16T10:29:55;4.93;;;3.73;;
3997;SDS011;61314;53.444;9.902;2023-07-16T10:32:25;11.83;;;3.87;;
3997;SDS011;61314;53.444;9.902;2023-07-16T10:34:53;5.40;;;4.33;;
3997;SDS011;61314;53.444;9.902;2023-07-16T10:37:20;7.20;;;5.00;;
3997;SDS011;61314;53.444;9.902;2023-07-16T10:39:47;8.83;;;3.70;;
3997;SDS011;61314;53.444;9.902;2023-07-16T10:42:17;5.07;;;3.63;;
3997;SDS011;61314;53.444;9.902;2023-07-16T10:44:48;9.97;;;4.07;;
3997;SDS011;61314;53.444;9.902;2023-07-16T10:47:18;4.30;;;3.90;;
3997;SDS011;61314;53.444;9.902;2023-07-16T10:49:49;7.40;;;4.10;;
3997;SDS011;61314;53.444;9.902;2023-07-16T10:52:18;5.40;;;3.97;;
3997;SDS011;61314;53.444;9.902;2023-07-16T10:54:45;3.60;;;2.97;;
3997;SDS011;61314;53.444;9.902;2023-07-16T10:57:12;5.90;;;3.77;;
3997;SDS011;61314;53.444;9.902;2023-07-16T10:59:39;5.30;;;3.53;;
3997;SDS011;61314;53.444;9.902;2023-07-16T11:02:11;4.67;;;3.60;;
3997;SDS011;61314;53.444;9.902;2023-07-16T11:04:40;9.10;;;4.40;;
3997;SDS011;61314;53.444;9.902;2023-07-16T11:07:07;4.57;;;4.13;;
3997;SDS011;61314;53.444;9.902;2023-07-16T11:09:39;5.57;;;4.17;;
3997;SDS011;61314;53.444;9.902;2023-07-16T11:12:08;5.77;;;3.87;;
3997;SDS011;61314;53.444;9.902;2023-07-16T11:14:36;5.30;;;4.33;;
3997;SDS011;61314;53.444;9.902;2023-07-16T11:17:06;4.00;;;3.70;;
3997;SDS011;61314;53.444;9.902;2023-07-16T11:19:35;10.20;;;3.30;;
3997;SDS011;61314;53.444;9.902;2023-07-16T11:22:03;4.50;;;4.00;;
3997;SDS011;61314;53.444;9.902;2023-07-16T11:24:39;6.10;;;3.67;;
3997;SDS011;61314;53.444;9.902;2023-07-16T11:27:18;10.23;;;4.10;;
3997;SDS011;61314;53.444;9.902;2023-07-16T11:29:48;4.70;;;3.97;;
3997;SDS011;61314;53.444;9.902;2023-07-16T11:32:26;6.00;;;3.37;;
3997;SDS011;61314;53.444;9.902;2023-07-16T11:34:57;3.73;;;3.43;;
3997;SDS011;61314;53.444;9.902;2023-07-16T11:37:24;7.00;;;3.93;;
3997;SDS011;61314;53.444;9.902;2023-07-16T11:40:01;8.90;;;3.90;;
3997;SDS011;61314;53.444;9.902;2023-07-16T11:42:29;7.13;;;3.57;;
3997;SDS011;61314;53.444;9.902;2023-07-16T11:44:57;5.27;;;3.40;;
3997;SDS011;61314;53.444;9.902;2023-07-16T11:47:24;5.80;;;3.13;;
3997;SDS011;61314;53.444;9.902;2023-07-16T11:49:52;9.77;;;3.57;;
3997;SDS011;61314;53.444;9.902;2023-07-16T11:52:29;4.30;;;3.70;;
3997;SDS011;61314;53.444;9.902;2023-07-16T11:54:57;4.13;;;3.27;;
3997;SDS011;61314;53.444;9.902;2023-07-16T11:57:29;5.13;;;3.23;;
3997;SDS011;61314;53.444;9.902;2023-07-16T11:59:56;3.97;;;3.47;;
3997;SDS011;61314;53.444;9.902;2023-07-16T12:02:25;4.77;;;3.50;;
3997;SDS011;61314;53.444;9.902;2023-07-16T12:04:52;6.63;;;3.30;;
3997;SDS011;61314;53.444;9.902;2023-07-16T12:07:30;5.97;;;4.10;;
3997;SDS011;61314;53.444;9.902;2023-07-16T12:09:59;4.40;;;3.93;;
3997;SDS011;61314;53.444;9.902;2023-07-16T12:12:28;9.80;;;4.67;;
3997;SDS011;61314;53.444;9.902;2023-07-16T12:14:55;8.20;;;3.20;;
3997;SDS011;61314;53.444;9.902;2023-07-16T12:17:24;9.73;;;3.53;;
3997;SDS011;61314;53.444;9.902;2023-07-16T12:19:51;5.93;;;3.33;;
3997;SDS011;61314;53.444;9.902;2023-07-16T12:22:18;4.80;;;3.30;;
3997;SDS011;61314;53.444;9.902;2023-07-16T12:24:45;8.63;;;3.53;;
3997;SDS011;61314;53.444;9.902;2023-07-16T12:27:13;4.33;;;3.23;;
3997;SDS011;61314;53.444;9.902;2023-07-16T12:29:41;8.20;;;3.40;;
3997;SDS011;61314;53.444;9.902;2023-07-16T12:32:10;4.20;;;3.20;;
3997;SDS011;61314;53.444;9.902;2023-07-16T12:34:37;3.27;;;2.87;;
3997;SDS011;61314;53.444;9.902;2023-07-16T12:37:04;7.60;;;3.70;;
3997;SDS011;61314;53.444;9.902;2023-07-16T12:39:32;4.00;;;2.80;;
3997;SDS011;61314;53.444;9.902;2023-07-16T12:41:59;8.50;;;3.77;;
3997;SDS011;61314;53.444;9.902;2023-07-16T12:44:26;3.97;;;2.87;;
3997;SDS011;61314;53.444;9.902;2023-07-16T12:46:53;5.10;;;2.80;;
3997;SDS011;61314;53.444;9.902;2023-07-16T12:49:20;5.70;;;2.73;;
3997;SDS011;61314;53.444;9.902;2023-07-16T12:51:47;3.40;;;2.53;;
3997;SDS011;61314;53.444;9.902;2023-07-16T12:54:14;4.93;;;3.27;;
3997;SDS011;61314;53.444;9.902;2023-07-16T12:56:41;6.60;;;3.17;;
3997;SDS011;61314;53.444;9.902;2023-07-16T12:59:09;5.20;;;3.47;;
3997;SDS011;61314;53.444;9.902;2023-07-16T13:01:36;4.73;;;3.27;;
3997;SDS011;61314;53.444;9.902;2023-07-16T13:04:03;4.07;;;3.13;;
3997;SDS011;61314;53.444;9.902;2023-07-16T13:06:31;4.33;;;2.67;;
3997;SDS011;61314;53.444;9.902;2023-07-16T13:08:58;6.53;;;3.00;;
3997;SDS011;61314;53.444;9.902;2023-07-16T13:11:25;3.07;;;2.87;;
3997;SDS011;61314;53.444;9.902;2023-07-16T13:13:52;3.33;;;2.83;;
3997;SDS011;61314;53.444;9.902;2023-07-16T13:16:19;8.50;;;3.33;;
3997;SDS011;61314;53.444;9.902;2023-07-16T13:18:46;5.17;;;3.20;;
3997;SDS011;61314;53.444;9.902;2023-07-16T13:21:14;3.53;;;2.97;;
3997;SDS011;61314;53.444;9.902;2023-07-16T13:23:41;3.00;;;2.80;;
3997;SDS011;61314;53.444;9.902;2023-07-16T13:26:08;3.50;;;3.20;;
3997;SDS011;61314;53.444;9.902;2023-07-16T13:28:35;3.23;;;2.60;;
3997;SDS011;61314;53.444;9.902;2023-07-16T13:31:02;7.10;;;3.73;;
3997;SDS011;61314;53.444;9.902;2023-07-16T13:33:29;6.13;;;4.00;;
3997;SDS011;61314;53.444;9.902;2023-07-16T13:35:56;2.77;;;2.57;;
3997;SDS011;61314;53.444;9.902;2023-07-16T13:38:27;4.10;;;2.90;;
3997;SDS011;61314;53.444;9.902;2023-07-16T13:40:54;5.20;;;3.30;;
3997;SDS011;61314;53.444;9.902;2023-07-16T13:43:21;4.87;;;3.37;;
3997;SDS011;61314;53.444;9.902;2023-07-16T13:45:48;4.60;;;3.03;;
3997;SDS011;61314;53.444;9.902;2023-07-16T13:48:15;2.80;;;2.60;;
3997;SDS011;61314;53.444;9.902;2023-07-16T13:50:43;5.20;;;2.80;;
3997;SDS011;61314;53.444;9.902;2023-07-16T13:53:10;4.93;;;3.13;;
3997;SDS011;61314;53.444;9.902;2023-07-16T13:55:37;3.83;;;3.33;;
3997;SDS011;61314;53.444;9.902;2023-07-16T13:58:04;5.53;;;2.93;;
3997;SDS011;61314;53.444;9.902;2023-07-16T14:00:31;3.20;;;2.90;;
3997;SDS011;61314;53.444;9.902;2023-07-16T14:02:58;2.90;;;2.60;;
3997;SDS011;61314;53.444;9.902;2023-07-16T14:05:25;6.27;;;2.93;;
3997;SDS011;61314;53.444;9.902;2023-07-16T14:07:53;4.90;;;3.00;;
3997;SDS011;61314;53.444;9.902;2023-07-16T14:10:20;5.60;;;3.33;;
3997;SDS011;61314;53.444;9.902;2023-07-16T14:12:47;3.73;;;2.67;;
3997;SDS011;61314;53.444;9.902;2023-07-16T14:15:14;3.30;;;3.00;;
3997;SDS011;61314;53.444;9.902;2023-07-16T14:17:44;5.07;;;3.23;;
3997;SDS011;61314;53.444;9.902;2023-07-16T14:20:11;3.50;;;3.20;;
3997;SDS011;61314;53.444;9.902;2023-07-16T14:22:38;3.70;;;2.87;;
3997;SDS011;61314;53.444;9.902;2023-07-16T14:25:05;4.27;;;3.50;;
3997;SDS011;61314;53.444;9.902;2023-07-16T14:27:33;3.20;;;2.77;;
3997;SDS011;61314;53.444;9.902;2023-07-16T14:30:00;5.50;;;3.37;;
3997;SDS011;61314;53.444;9.902;2023-07-16T14:32:32;5.90;;;2.70;;
3997;SDS011;61314;53.444;9.902;2023-07-16T14:34:59;9.53;;;3.50;;
3997;SDS011;61314;53.444;9.902;2023-07-16T14:37:27;8.30;;;3.67;;
3997;SDS011;61314;53.444;9.902;2023-07-16T14:39:54;6.33;;;3.10;;
3997;SDS011;61314;53.444;9.902;2023-07-16T14:42:21;9.90;;;3.43;;
3997;SDS011;61314;53.444;9.902;2023-07-16T14:44:48;3.87;;;3.10;;
3997;SDS011;61314;53.444;9.902;2023-07-16T14:47:15;3.20;;;2.90;;
3997;SDS011;61314;53.444;9.902;2023-07-16T14:49:43;6.83;;;3.17;;
3997;SDS011;61314;53.444;9.902;2023-07-16T14:52:10;6.00;;;2.93;;
3997;SDS011;61314;53.444;9.902;2023-07-16T14:54:37;4.57;;;3.43;;
3997;SDS011;61314;53.444;9.902;2023-07-16T14:57:04;6.33;;;4.03;;
3997;SDS011;61314;53.444;9.902;2023-07-16T14:59:31;4.30;;;3.20;;
3997;SDS011;61314;53.444;9.902;2023-07-16T15:01:58;9.20;;;3.60;;
3997;SDS011;61314;53.444;9.902;2023-07-16T15:04:26;7.50;;;3.47;;
3997;SDS011;61314;53.444;9.902;2023-07-16T15:06:53;9.93;;;3.23;;
3997;SDS011;61314;53.444;9.902;2023-07-16T15:09:20;2.80;;;2.60;;
3997;SDS011;61314;53.444;9.902;2023-07-16T15:11:47;5.40;;;3.43;;
3997;SDS011;61314;53.444;9.902;2023-07-16T15:14:14;5.70;;;3.40;;
3997;SDS011;61314;53.444;9.902;2023-07-16T15:16:41;5.17;;;3.10;;
3997;SDS011;61314;53.444;9.902;2023-07-16T15:19:08;6.23;;;3.27;;
3997;SDS011;61314;53.444;9.902;2023-07-16T15:21:35;5.67;;;3.53;;